Time;durP1;ratioP1;P1;durP2;ratioP2;P2;SDS_P1;SDS_P2;PMS_P1;PMS_P2;Temp;Humidity;BMP_temperature;BMP_pressure;BME280_temperature;BME280_humidity;BME280_pressure;Samples;Min_cycle;Max_cycle;Signal;HPM_P1;HPM_P2
2021/12/19 00:00:41;;;;;;;7.80;4.42;;;;;;;5.27;89.94;101403.91;1694556;83;21124;-76
2021/12/19 00:08:49;;;;;;;11.28;4.97;;;;;;;5.33;89.96;101412.98;1701262;83;21065;-76
2021/12/19 00:11:06;;;;;;;11.25;5.97;;;;;;;5.35;89.91;101396.34;1712622;81;21042;-76
2021/12/19 00:13:33;;;;;;;11.48;6.25;;;;;;;5.37;89.97;101396.37;1719374;83;21128;-76
2021/12/19 00:15:59;;;;;;;9.78;6.62;;;;;;;5.40;89.98;101392.17;1721368;81;21053;-76
2021/12/19 00:18:26;;;;;;;8.65;5.55;;;;;;;5.42;89.97;101371.67;1722832;81;21081;-76
2021/12/19 00:20:52;;;;;;;;;;;;;;;5.43;89.99;101366.99;1722172;83;21078;-76
2021/12/19 00:23:18;;;;;;;12.78;6.28;;;;;;;5.45;90.02;101352.08;1719679;83;20219;-76
2021/12/19 00:25:45;;;;;;;12.98;6.17;;;;;;;5.48;90.00;101355.97;1722226;81;21640;-76
2021/12/19 00:28:11;;;;;;;12.47;6.50;;;;;;;5.51;90.02;101352.17;1729185;81;27101;-76
2021/12/19 00:30:37;;;;;;;8.40;5.75;;;;;;;5.53;89.99;101353.06;1720042;80;21117;-76
2021/12/19 00:33:04;;;;;;;16.12;7.17;;;;;;;5.55;90.01;101350.11;1742641;81;21082;-76
2021/12/19 00:35:30;;;;;;;11.43;6.62;;;;;;;5.58;90.00;101346.73;1721841;83;20911;-76
2021/12/19 00:37:57;;;;;;;16.77;6.70;;;;;;;5.60;90.00;101342.48;1720619;83;21066;-76
2021/12/19 00:40:24;;;;;;;10.32;6.20;;;;;;;5.61;89.99;101341.64;1732584;81;21046;-76
2021/12/19 00:43:01;;;;;;;11.73;6.75;;;;;;;5.64;89.96;101341.70;1719387;81;21053;-76
2021/12/19 00:45:31;;;;;;;16.73;5.35;;;;;;;5.65;89.98;101328.89;1720921;81;21398;-76
2021/12/19 00:47:57;;;;;;;11.55;5.42;;;;;;;5.68;89.97;101316.95;1725988;81;21026;-76
2021/12/19 00:50:26;;;;;;;15.48;5.15;;;;;;;5.69;89.97;101314.41;1726357;81;21389;-76
2021/12/19 00:52:53;;;;;;;10.05;4.37;;;;;;;5.72;90.02;101308.00;1736846;81;21046;-76
2021/12/19 00:55:22;;;;;;;;;;;;;;;5.74;90.00;101296.06;1743174;81;21070;-76
2021/12/19 00:57:50;;;;;;;11.20;4.80;;;;;;;5.76;90.02;101294.38;1746916;81;21085;-76
2021/12/19 01:00:20;;;;;;;10.80;4.87;;;;;;;5.77;89.99;101285.84;1748647;81;21342;-76
2021/12/19 01:02:47;;;;;;;13.38;3.80;;;;;;;5.78;90.00;101287.57;1729832;80;21413;-76
2021/12/19 01:05:13;;;;;;;;;;;;;;;5.80;90.00;101289.73;1754243;81;21324;-76
2021/12/19 01:07:39;;;;;;;7.58;3.55;;;;;;;5.83;89.98;101283.78;1748433;81;20359;-76
2021/12/19 01:10:08;;;;;;;11.08;3.50;;;;;;;5.84;89.99;101286.80;1713713;81;21038;-76
2021/12/19 01:12:37;;;;;;;12.50;3.35;;;;;;;5.85;89.97;101282.97;1688319;84;20961;-76
2021/12/19 01:15:11;;;;;;;8.20;3.72;;;;;;;5.88;89.95;101284.30;1688337;84;20973;-76
2021/12/19 01:17:37;;;;;;;9.78;3.40;;;;;;;5.90;89.97;101277.93;1686856;83;21089;-76
2021/12/19 01:20:08;;;;;;;15.00;3.87;;;;;;;5.91;89.94;101270.67;1705387;83;21150;-76
2021/12/19 01:22:34;;;;;;;7.78;3.42;;;;;;;5.92;89.92;101265.56;1714785;83;20966;-76
2021/12/19 01:25:01;;;;;;;8.63;4.22;;;;;;;5.93;89.92;101267.28;1703006;83;20970;-76
2021/12/19 01:27:27;;;;;;;12.93;3.47;;;;;;;5.94;89.92;101265.16;1715986;83;21058;-76
2021/12/19 01:29:53;;;;;;;10.23;2.83;;;;;;;5.95;89.91;101264.31;1710934;83;20994;-76
2021/12/19 01:32:20;;;;;;;8.83;3.27;;;;;;;5.96;89.89;101260.05;1688754;82;21561;-76
2021/12/19 01:34:46;;;;;;;5.50;2.72;;;;;;;5.95;89.87;101264.73;1691624;83;21391;-76
2021/12/19 01:37:13;;;;;;;10.13;3.17;;;;;;;5.95;89.87;101254.05;1687011;83;21116;-76
2021/12/19 01:39:39;;;;;;;15.72;3.40;;;;;;;5.97;89.86;101247.23;1688868;83;21042;-76
2021/12/19 01:42:12;;;;;;;10.68;3.08;;;;;;;5.98;89.83;101249.38;1715579;83;21098;-76
2021/12/19 01:44:38;;;;;;;7.80;3.10;;;;;;;5.98;89.84;101246.39;1702943;83;353178;-76
2021/12/19 01:47:05;;;;;;;9.45;3.00;;;;;;;5.98;89.82;101239.97;1689415;83;20996;-76
2021/12/19 01:49:31;;;;;;;;;;;;;;;5.98;89.82;101230.13;1691852;84;20923;-76
2021/12/19 01:51:58;;;;;;;9.70;3.08;;;;;;;5.98;89.75;101223.71;1691524;83;20204;-75
2021/12/19 01:54:25;;;;;;;11.25;2.87;;;;;;;5.97;89.77;101227.98;1708322;83;20918;-75
2021/12/19 01:56:52;;;;;;;7.75;2.42;;;;;;;5.97;89.76;101233.11;1689316;83;20919;-75
2021/12/19 01:59:19;;;;;;;13.38;3.77;;;;;;;5.98;89.77;101222.42;1689289;84;20910;-75
2021/12/19 02:01:50;;;;;;;10.28;2.92;;;;;;;5.97;89.79;101226.70;1689296;84;20878;-75
2021/12/19 02:04:19;;;;;;;10.98;3.77;;;;;;;5.96;89.77;101222.41;1700777;83;20914;-75
2021/12/19 02:06:47;;;;;;;7.60;3.20;;;;;;;5.96;89.80;101209.57;1689203;83;20910;-75
2021/12/19 02:09:13;;;;;;;7.60;3.15;;;;;;;5.97;89.77;101204.88;1689266;84;20915;-75
2021/12/19 02:11:41;;;;;;;7.95;3.15;;;;;;;5.96;89.76;101200.59;1689118;83;20946;-75
2021/12/19 02:14:09;;;;;;;9.28;2.85;;;;;;;5.96;89.75;101194.17;1692184;83;20974;-75
2021/12/19 02:16:39;;;;;;;6.78;2.60;;;;;;;5.95;89.77;101189.87;1671204;84;20950;-75
2021/12/19 02:19:06;;;;;;;10.95;3.30;;;;;;;5.96;89.75;101190.32;1701624;83;20918;-75
2021/12/19 02:21:33;;;;;;;10.25;2.42;;;;;;;5.96;89.72;101185.61;1689318;83;20879;-75
2021/12/19 02:24:05;;;;;;;9.88;2.95;;;;;;;5.95;89.72;101177.05;1689354;84;20946;-75
2021/12/19 02:26:32;;;;;;;7.47;2.60;;;;;;;5.94;89.71;101170.19;1688986;84;21428;-75
2021/12/19 02:28:58;;;;;;;8.38;3.08;;;;;;;5.93;89.70;101167.19;1689582;83;20918;-75
2021/12/19 02:31:27;;;;;;;;;;;;;;;5.93;89.68;101151.78;1691960;84;20962;-75
2021/12/19 02:34:04;;;;;;;11.22;3.17;;;;;;;5.92;89.63;101146.63;1709689;83;20123;-75
2021/12/19 02:36:29;;;;;;;10.05;3.20;;;;;;;5.91;89.68;101144.91;1704322;81;20903;-75
2021/12/19 02:49:43;;;;;;;11.43;3.65;;;;;;;5.87;89.63;101128.58;1718229;83;21538;-75
2021/12/19 02:52:17;;;;;;;13.70;3.50;;;;;;;5.87;89.63;101111.04;1718027;83;20867;-75
2021/12/19 02:54:44;;;;;;;7.75;3.22;;;;;;;5.87;89.61;101109.33;1689856;83;21466;-75
2021/12/19 02:57:11;;;;;;;11.30;4.20;;;;;;;5.87;89.62;101118.31;1689509;83;20966;-75
2021/12/19 02:59:37;;;;;;;5.15;3.00;;;;;;;5.88;89.62;101112.34;1697570;83;20910;-75
2021/12/19 03:02:04;;;;;;;9.30;2.83;;;;;;;5.89;89.59;101106.81;1693798;82;20906;-75
2021/12/19 03:04:30;;;;;;;10.95;3.37;;;;;;;5.90;89.59;101104.69;1687909;84;20963;-75
2021/12/19 03:06:57;;;;;;;8.45;3.10;;;;;;;5.89;89.62;101090.99;1689601;84;20903;-75
2021/12/19 03:10:02;;;;;;;11.95;3.30;;;;;;;5.89;89.62;101099.98;1689691;83;20910;-75
2021/12/19 03:18:01;;;;;;;10.55;3.35;;;;;;;5.90;89.58;101076.03;1751697;81;21312;-75
2021/12/19 03:20:27;;;;;;;12.13;4.05;;;;;;;5.89;89.57;101075.59;1745720;81;21784;-75
2021/12/19 03:22:54;;;;;;;10.20;3.15;;;;;;;5.89;89.58;101069.60;1721025;81;20911;-75
2021/12/19 03:25:21;;;;;;;9.60;3.33;;;;;;;5.88;89.57;101072.56;1741041;81;21353;-75
2021/12/19 03:27:48;;;;;;;6.70;3.15;;;;;;;5.89;89.53;101069.60;1721732;83;21339;-75
2021/12/19 03:30:14;;;;;;;12.60;3.83;;;;;;;5.90;89.56;101076.03;1721926;83;21404;-75
2021/12/19 03:32:41;;;;;;;10.28;4.28;;;;;;;5.91;89.55;101087.16;1722316;81;21793;-75
2021/12/19 03:35:08;;;;;;;7.80;3.50;;;;;;;5.91;89.53;101085.45;1745564;81;21447;-75
2021/12/19 03:37:34;;;;;;;11.60;3.72;;;;;;;5.93;89.51;101084.19;1738755;81;21455;-75
2021/12/19 03:40:11;;;;;;;7.42;3.58;;;;;;;5.94;89.50;101087.20;1748526;80;21388;-75
2021/12/19 03:42:42;;;;;;;6.33;2.80;;;;;;;5.95;89.50;101083.78;1703305;83;20970;-76
2021/12/19 03:45:12;;;;;;;8.93;3.65;;;;;;;5.96;89.48;101076.52;1749065;80;21327;-76
2021/12/19 03:47:39;;;;;;;8.80;2.87;;;;;;;5.96;89.49;101085.08;1721838;83;21395;-75
2021/12/19 03:50:09;;;;;;;8.80;3.55;;;;;;;5.96;89.43;101087.65;1730657;81;21379;-75
2021/12/19 03:52:36;;;;;;;10.05;2.62;;;;;;;5.96;89.48;101086.79;1739895;81;21376;-76
2021/12/19 03:55:04;;;;;;;7.37;2.70;;;;;;;5.96;89.46;101054.28;1751771;81;21448;-76
2021/12/19 03:57:31;;;;;;;8.08;3.72;;;;;;;5.96;89.43;101073.53;1751766;81;21345;-75
2021/12/19 03:59:57;;;;;;;12.85;2.95;;;;;;;5.96;89.42;101059.84;1732445;81;21387;-75
2021/12/19 04:02:29;;;;;;;6.45;2.37;;;;;;;5.96;89.40;101067.54;1741792;80;21423;-75
2021/12/19 04:04:58;;;;;;;8.95;3.00;;;;;;;5.96;89.39;101055.56;1751764;81;20931;-75
2021/12/19 04:07:27;;;;;;;5.40;2.37;;;;;;;5.96;89.38;101054.28;1751627;81;21412;-75
2021/12/19 04:09:54;;;;;;;7.65;2.95;;;;;;;5.96;89.38;101060.70;1682537;83;21443;-75
2021/12/19 04:12:26;;;;;;;6.83;2.22;;;;;;;5.94;89.33;101049.55;1751293;81;21377;-75
2021/12/19 04:14:51;;;;;;;5.87;1.95;;;;;;;5.95;89.31;101055.55;1751450;80;20947;-75
2021/12/19 04:17:18;;;;;;;3.30;1.65;;;;;;;5.94;89.35;101053.41;1751755;81;20899;-75
2021/12/19 04:19:44;;;;;;;5.17;2.20;;;;;;;5.94;89.33;101056.39;1727622;81;21428;-75
2021/12/19 04:22:10;;;;;;;9.30;2.08;;;;;;;5.94;89.32;101064.09;1721881;81;21376;-75
2021/12/19 04:24:37;;;;;;;4.30;1.80;;;;;;;5.93;89.28;101061.09;1722648;81;21376;-75
2021/12/19 04:27:04;;;;;;;1.95;1.27;;;;;;;5.92;89.25;101063.22;1749156;81;21769;-75
2021/12/19 04:29:30;;;;;;;3.72;1.45;;;;;;;5.89;89.27;101047.36;1735910;81;21745;-75
2021/12/19 04:31:56;;;;;;;3.80;1.42;;;;;;;5.90;89.29;101027.27;1721850;81;21360;-75
2021/12/19 04:34:23;;;;;;;3.60;1.50;;;;;;;5.90;89.27;101042.67;1739357;81;21748;-75
2021/12/19 04:36:56;;;;;;;;;;;;;;;5.89;89.26;101031.97;1703705;83;21447;-75
2021/12/19 04:40:07;;;;;;;2.20;1.17;;;;;;;5.88;89.22;101018.66;1700664;83;20129;-75
2021/12/19 04:52:54;;;;;;;1.92;0.90;;;;;;;5.88;89.17;101014.81;1700569;84;20921;-76
2021/12/19 04:55:21;;;;;;;1.67;1.00;;;;;;;5.87;89.17;101009.66;1698477;83;20977;-76
2021/12/19 05:00:08;;;;;;;3.33;0.90;;;;;;;5.85;89.12;101012.64;1672756;84;20945;-76
2021/12/19 05:16:00;;;;;;;4.50;1.10;;;;;;;5.78;89.07;101007.88;1701020;84;20953;-75
2021/12/19 05:18:30;;;;;;;3.08;1.00;;;;;;;5.78;89.08;101007.01;1701164;84;20962;-75
2021/12/19 05:21:02;;;;;;;5.00;1.27;;;;;;;5.76;89.09;101009.56;1684794;82;20929;-75
2021/12/19 05:23:49;;;;;;;1.05;0.65;;;;;;;5.76;89.10;101008.70;1694853;83;20878;-75
2021/12/19 05:25:56;;;;;;;2.72;1.00;;;;;;;5.74;89.11;101011.67;1666783;84;20933;-75
2021/12/19 05:28:23;;;;;;;1.98;1.10;;;;;;;5.73;89.07;101008.67;1687036;83;20957;-75
2021/12/19 05:30:49;;;;;;;3.00;1.22;;;;;;;5.72;89.08;100992.41;1683977;84;20946;-75
2021/12/19 05:33:16;;;;;;;3.52;0.95;;;;;;;5.70;89.07;101005.69;1687052;83;20906;-75
2021/12/19 05:46:43;;;;;;;1.95;0.90;;;;;;;5.67;89.07;100995.81;1700858;84;20934;-75
2021/12/19 05:49:10;;;;;;;3.98;1.65;;;;;;;5.64;89.07;101000.48;1690403;83;20952;-75
2021/12/19 05:51:38;;;;;;;3.42;1.27;;;;;;;5.63;89.07;101002.19;1688946;84;20898;-76
2021/12/19 05:54:06;;;;;;;3.40;1.42;;;;;;;5.62;89.07;101003.04;1688416;84;20941;-76
2021/12/19 05:56:32;;;;;;;6.97;1.67;;;;;;;5.62;89.08;101004.32;1700646;84;20961;-76
2021/12/19 05:58:59;;;;;;;4.17;1.07;;;;;;;5.61;89.07;101012.00;1688574;83;20930;-76
2021/12/19 06:01:25;;;;;;;5.50;1.50;;;;;;;5.60;89.07;101003.86;1699952;83;20946;-76
2021/12/19 06:03:51;;;;;;;5.80;1.82;;;;;;;5.60;89.08;100997.45;1685426;83;20897;-76
2021/12/19 06:06:18;;;;;;;2.67;1.35;;;;;;;5.60;89.06;100993.18;1672919;83;20969;-76
2021/12/19 06:08:45;;;;;;;4.58;1.77;;;;;;;5.59;89.04;100999.16;1678315;83;20946;-76
2021/12/19 06:11:11;;;;;;;5.53;1.55;;;;;;;5.60;89.06;101000.02;1672582;84;20902;-76
2021/12/19 06:13:37;;;;;;;2.83;1.10;;;;;;;5.60;89.04;101006.43;1672632;85;20917;-75
2021/12/19 06:16:07;;;;;;;1.95;1.15;;;;;;;5.59;89.03;100995.31;1674401;83;20914;-76
2021/12/19 06:18:33;;;;;;;3.83;2.12;;;;;;;5.59;89.03;100995.73;1698586;84;21300;-75
2021/12/19 06:20:59;;;;;;;5.12;1.62;;;;;;;5.59;89.01;100999.16;1686848;83;20921;-75
2021/12/19 06:23:25;;;;;;;8.03;2.00;;;;;;;5.59;89.00;100986.75;1672601;84;20929;-75
2021/12/19 06:25:53;;;;;;;6.50;1.80;;;;;;;5.59;88.99;100980.34;1660611;85;20982;-75
2021/12/19 06:28:21;;;;;;;2.75;1.42;;;;;;;5.60;88.99;100974.37;1672426;85;20961;-75
2021/12/19 06:30:47;;;;;;;3.55;1.60;;;;;;;5.59;88.99;100972.22;1687625;83;20965;-75
2021/12/19 06:33:13;;;;;;;6.83;2.37;;;;;;;5.61;88.98;100978.66;1700824;82;20941;-75
2021/12/19 06:35:40;;;;;;;5.55;1.50;;;;;;;5.60;88.96;100971.38;1698327;83;20949;-75
2021/12/19 06:38:06;;;;;;;;;;;;;;;5.58;88.96;100958.96;1690155;84;20961;-75
2021/12/19 06:40:34;;;;;;;5.45;1.55;;;;;;;5.59;88.96;100967.52;1672754;85;20153;-75
2021/12/19 06:43:00;;;;;;;3.70;1.50;;;;;;;5.58;88.96;100965.38;1672547;85;20898;-75
2021/12/19 06:45:27;;;;;;;7.70;1.42;;;;;;;5.58;88.96;100967.94;1672953;83;20929;-75
2021/12/19 06:47:53;;;;;;;;;;;;;;;5.59;88.97;100973.92;1663260;85;20933;-75
2021/12/19 06:50:20;;;;;;;6.70;1.87;;;;;;;5.59;88.96;100971.36;1672741;85;20156;-76
2021/12/19 06:52:47;;;;;;;;;;;;;;;5.59;88.97;100984.19;1685661;83;21005;-76
2021/12/19 06:55:16;;;;;;;4.55;1.55;;;;;;;5.59;88.95;100980.34;1697585;82;20106;-76
2021/12/19 06:57:42;;;;;;;4.87;1.37;;;;;;;5.58;88.96;100979.91;1681226;83;20929;-76
2021/12/19 07:00:16;;;;;;;7.05;1.62;;;;;;;5.58;88.94;100982.47;1678082;84;21036;-76
2021/12/19 07:02:43;;;;;;;6.10;1.52;;;;;;;5.58;88.94;100978.20;1691670;82;21291;-76
2021/12/19 07:05:10;;;;;;;3.80;1.52;;;;;;;5.59;88.95;100975.21;1684316;84;21054;-75
2021/12/19 07:07:37;;;;;;;7.67;1.40;;;;;;;5.60;88.94;100982.06;1670285;84;21053;-75
2021/12/19 07:10:05;;;;;;;5.65;1.45;;;;;;;5.60;88.94;100975.22;1675272;83;21109;-75
2021/12/19 07:12:32;;;;;;;4.50;1.55;;;;;;;5.60;88.93;100973.94;1684713;84;21048;-75
2021/12/19 07:14:59;;;;;;;5.00;1.92;;;;;;;5.61;88.92;100984.64;1627593;84;21588;-75
2021/12/19 07:17:26;;;;;;;;;;;;;;;5.62;88.88;100984.22;1687971;83;21073;-75
2021/12/19 07:19:52;;;;;;;8.65;1.72;;;;;;;5.61;88.87;100976.09;1686103;83;20203;-75
2021/12/19 07:22:19;;;;;;;5.10;1.95;;;;;;;5.60;88.87;100968.81;1671441;84;21069;-75
2021/12/19 07:24:46;;;;;;;5.85;2.30;;;;;;;5.61;88.90;100970.95;1671966;84;21029;-75
2021/12/19 07:27:14;;;;;;;5.28;3.15;;;;;;;5.61;88.88;100961.98;1672050;83;21076;-75
2021/12/19 07:29:41;;;;;;;5.12;1.80;;;;;;;5.60;88.87;100966.25;1679544;83;21055;-75
2021/12/19 07:32:07;;;;;;;;;;;;;;;5.62;88.86;100967.12;1688707;84;21056;-75
2021/12/19 07:34:37;;;;;;;6.03;3.35;;;;;;;5.63;88.83;100966.70;1680896;84;20229;-75
2021/12/19 07:37:04;;;;;;;5.90;4.42;;;;;;;5.64;88.86;100959.44;1659662;84;21859;-75
2021/12/19 07:42:06;;;;;;;6.55;2.98;;;;;;;5.65;88.86;100960.73;1673396;83;21056;-75
2021/12/19 07:44:33;;;;;;;6.92;2.33;;;;;;;5.67;88.83;100953.48;1670573;84;21056;-75
2021/12/19 07:47:00;;;;;;;4.85;3.17;;;;;;;5.66;88.83;100941.08;1693347;82;21088;-75
2021/12/19 07:49:26;;;;;;;5.42;2.40;;;;;;;5.67;88.82;100934.23;1679774;82;21338;-75
2021/12/19 07:51:53;;;;;;;5.83;1.70;;;;;;;5.68;88.80;100944.52;1693776;83;26896;-76
2021/12/19 07:54:19;;;;;;;7.65;1.82;;;;;;;5.70;88.78;100954.80;1679581;84;21064;-76
2021/12/19 07:56:46;;;;;;;3.42;1.57;;;;;;;5.71;88.79;100947.53;1670633;84;21040;-76
2021/12/19 07:59:13;;;;;;;4.15;1.47;;;;;;;5.72;88.78;100951.36;1670694;83;21128;-76
2021/12/19 08:01:40;;;;;;;4.42;1.95;;;;;;;5.73;88.76;100954.36;1683242;82;21422;-76
2021/12/19 08:04:06;;;;;;;3.77;1.37;;;;;;;5.75;88.75;100940.27;1657413;84;20989;-76
2021/12/19 08:06:32;;;;;;;5.92;1.35;;;;;;;5.77;88.76;100928.31;1692172;83;20949;-76
2021/12/19 08:09:07;;;;;;;4.05;1.55;;;;;;;5.77;88.75;100927.89;1695409;83;20946;-76
2021/12/19 08:11:42;;;;;;;4.95;1.25;;;;;;;5.79;88.75;100939.45;1699725;83;20957;-75
2021/12/19 08:14:12;;;;;;;4.70;1.40;;;;;;;5.79;88.74;100933.03;1691661;83;20922;-75
2021/12/19 08:16:41;;;;;;;5.30;1.50;;;;;;;5.81;88.70;100933.91;1697690;83;20890;-75
2021/12/19 08:19:08;;;;;;;5.72;1.30;;;;;;;5.82;88.70;100927.93;1685803;84;20874;-75
2021/12/19 08:21:34;;;;;;;5.87;1.47;;;;;;;5.84;88.68;100933.94;1698113;83;21434;-75
2021/12/19 08:24:02;;;;;;;5.22;1.65;;;;;;;5.85;88.72;100930.52;1695751;83;21509;-75
2021/12/19 08:26:30;;;;;;;4.97;1.17;;;;;;;5.85;88.70;100927.53;1688691;83;21517;-75
2021/12/19 08:28:57;;;;;;;5.28;1.85;;;;;;;5.86;88.70;100929.67;1680668;83;20985;-75
2021/12/19 08:31:24;;;;;;;6.42;1.60;;;;;;;5.87;88.64;100932.68;1662190;83;20949;-75
2021/12/19 08:33:51;;;;;;;5.62;1.85;;;;;;;5.89;88.65;100937.44;1691884;83;20949;-75
2021/12/19 08:36:20;;;;;;;5.15;1.57;;;;;;;5.90;88.66;100941.72;1691045;83;20957;-75
2021/12/19 08:38:47;;;;;;;5.87;1.60;;;;;;;5.90;88.61;100942.58;1695924;83;20961;-75
2021/12/19 08:41:14;;;;;;;4.33;1.20;;;;;;;5.91;88.60;100934.45;1686546;83;21277;-75
2021/12/19 08:43:40;;;;;;;5.00;1.45;;;;;;;5.92;88.56;100925.48;1693458;83;20913;-75
2021/12/19 08:46:09;;;;;;;4.15;1.67;;;;;;;5.94;88.59;100921.65;1692060;83;20977;-75
2021/12/19 08:48:36;;;;;;;5.42;1.15;;;;;;;5.95;88.56;100924.65;1683141;83;20982;-76
2021/12/19 08:51:03;;;;;;;2.65;1.20;;;;;;;5.96;88.57;100922.09;1681332;83;21460;-75
2021/12/19 08:53:29;;;;;;;4.83;1.20;;;;;;;5.97;88.54;100922.53;1681278;83;20982;-76
2021/12/19 08:55:55;;;;;;;2.42;1.40;;;;;;;5.99;88.55;100926.39;1670841;84;21450;-74
2021/12/19 08:58:22;;;;;;;10.35;2.05;;;;;;;6.02;88.54;100933.27;1651518;83;20965;-74
2021/12/19 09:00:48;;;;;;;7.10;1.60;;;;;;;6.02;88.55;100923.85;1674655;83;21077;-74
2021/12/19 09:03:16;;;;;;;4.78;1.70;;;;;;;6.04;88.49;100927.71;1673763;83;20965;-74
2021/12/19 09:05:42;;;;;;;6.80;2.37;;;;;;;6.05;88.51;100932.00;1674920;84;20961;-73
2021/12/19 09:08:09;;;;;;;4.62;2.02;;;;;;;6.06;88.50;100931.16;1678629;83;20961;-73
2021/12/19 09:10:35;;;;;;;11.30;2.15;;;;;;;6.06;88.49;100934.58;1671291;83;20946;-73
2021/12/19 09:13:01;;;;;;;4.90;1.62;;;;;;;6.08;88.46;100929.03;1670846;85;20933;-73
2021/12/19 09:15:28;;;;;;;10.80;2.30;;;;;;;6.09;88.40;100937.17;1725691;82;20868;-73
2021/12/19 09:17:54;;;;;;;3.95;1.40;;;;;;;6.09;88.46;100946.16;1730780;82;20923;-73
2021/12/19 09:20:21;;;;;;;6.25;2.05;;;;;;;6.09;88.47;100941.02;1701734;82;20931;-73
2021/12/19 09:22:47;;;;;;;3.33;1.20;;;;;;;6.10;88.34;100930.33;1737627;82;20927;-73
2021/12/19 09:25:13;;;;;;;10.80;1.92;;;;;;;6.10;88.42;100937.61;1730806;82;20966;-73
2021/12/19 09:27:40;;;;;;;5.30;1.87;;;;;;;6.11;88.45;100931.63;1719302;81;20975;-73
2021/12/19 09:30:07;;;;;;;6.62;1.57;;;;;;;6.10;88.43;100925.19;1725520;82;20951;-73
2021/12/19 09:32:34;;;;;;;5.78;1.60;;;;;;;6.11;88.40;100925.63;1708280;80;20947;-74
2021/12/19 09:35:00;;;;;;;4.10;1.62;;;;;;;6.09;88.37;100919.20;1716066;82;20919;-74
2021/12/19 09:37:28;;;;;;;5.87;1.52;;;;;;;6.10;88.33;100926.05;1724024;81;20872;-74
2021/12/19 09:39:54;;;;;;;5.55;1.55;;;;;;;6.11;88.37;100926.91;1727865;80;20880;-74
2021/12/19 09:42:23;;;;;;;6.03;1.45;;;;;;;6.10;88.34;100914.92;1698960;81;20919;-74
2021/12/19 09:44:49;;;;;;;9.13;1.52;;;;;;;6.09;88.30;100896.09;1722075;80;20967;-74
2021/12/19 09:47:15;;;;;;;8.88;2.50;;;;;;;6.11;88.28;100894.82;1720259;82;20911;-74
2021/12/19 09:49:42;;;;;;;5.10;2.25;;;;;;;6.11;88.33;100896.97;1729469;80;20941;-74
2021/12/19 09:52:09;;;;;;;4.37;1.25;;;;;;;6.11;88.26;100894.39;1735040;80;26725;-73
2021/12/19 09:54:39;;;;;;;8.18;1.65;;;;;;;6.12;88.29;100891.41;1720426;82;20871;-73
2021/12/19 09:57:06;;;;;;;5.87;1.45;;;;;;;6.12;88.26;100892.69;1729133;80;20911;-73
2021/12/19 09:59:32;;;;;;;5.80;1.37;;;;;;;6.12;88.24;100892.27;1729290;81;21476;-73
2021/12/19 10:02:01;;;;;;;8.90;1.82;;;;;;;6.13;88.25;100891.84;1716986;81;37661;-73
2021/12/19 10:04:35;;;;;;;11.95;2.55;;;;;;;6.12;88.21;100888.41;1726363;82;20935;-73
2021/12/19 10:07:18;;;;;;;3.90;1.22;;;;;;;6.13;88.18;100876.44;1724284;82;20907;-73
2021/12/19 10:10:01;;;;;;;4.70;1.32;;;;;;;6.15;88.20;100890.14;1724371;82;20903;-73
2021/12/19 10:12:48;;;;;;;3.50;1.35;;;;;;;6.14;88.18;100874.30;1714374;82;20947;-73
2021/12/19 10:15:31;;;;;;;6.53;1.52;;;;;;;6.15;88.18;100869.18;1649062;84;20921;-73
2021/12/19 10:18:16;;;;;;;5.80;1.85;;;;;;;6.16;88.18;100868.33;1663036;84;21355;-73
2021/12/19 10:20:47;;;;;;;6.30;1.80;;;;;;;6.16;88.10;100867.05;1647682;86;20942;-73
2021/12/19 10:23:19;;;;;;;7.03;1.77;;;;;;;6.18;88.16;100852.94;1634669;86;20922;-73
2021/12/19 10:26:03;;;;;;;4.85;1.62;;;;;;;6.19;88.15;100853.37;1638453;86;20909;-73
2021/12/19 10:28:30;;;;;;;7.62;1.62;;;;;;;6.20;88.14;100844.39;1615006;84;20881;-73
2021/12/19 10:31:00;;;;;;;6.22;1.60;;;;;;;6.20;88.04;100841.82;1630394;87;20885;-73
2021/12/19 10:33:31;;;;;;;5.25;1.55;;;;;;;6.20;88.07;100831.55;1640555;86;20963;-73
2021/12/19 10:36:02;;;;;;;5.55;1.35;;;;;;;6.21;88.11;100831.13;1636607;86;21425;-73
2021/12/19 10:38:35;;;;;;;4.22;1.60;;;;;;;6.20;88.07;100834.12;1633833;86;20906;-73
2021/12/19 10:41:16;;;;;;;6.17;1.40;;;;;;;6.21;88.08;100829.84;1639817;86;20886;-73
2021/12/19 10:43:59;;;;;;;6.75;1.47;;;;;;;6.20;88.05;100826.84;1634337;86;21809;-74
2021/12/19 10:46:30;;;;;;;4.55;1.42;;;;;;;6.20;88.06;100823.84;1642446;86;20951;-74
2021/12/19 10:48:58;;;;;;;4.37;1.17;;;;;;;6.20;88.03;100805.02;1638116;86;20867;-74
2021/12/19 10:51:25;;;;;;;3.50;1.40;;;;;;;6.20;88.05;100812.72;1647914;86;20941;-73
2021/12/19 10:53:55;;;;;;;6.05;1.95;;;;;;;6.21;88.01;100805.45;1634402;86;20885;-73
2021/12/19 10:56:26;;;;;;;4.47;1.60;;;;;;;6.20;87.97;100802.02;1634522;86;20925;-74
2021/12/19 10:58:59;;;;;;;4.80;1.35;;;;;;;6.21;87.98;100793.89;1635751;86;20909;-74
2021/12/19 11:01:35;;;;;;;5.62;1.47;;;;;;;6.23;87.96;100788.34;1643076;86;21791;-74
2021/12/19 11:04:14;;;;;;;3.08;1.10;;;;;;;6.22;87.97;100778.50;1603106;86;20885;-74
2021/12/19 11:06:59;;;;;;;9.05;1.87;;;;;;;6.23;87.91;100767.38;1642244;86;21385;-74
2021/12/19 11:09:29;;;;;;;5.47;1.50;;;;;;;6.24;87.94;100772.91;1640574;86;20879;-74
2021/12/19 11:12:02;;;;;;;5.25;1.50;;;;;;;6.27;87.89;100763.94;1643072;85;20866;-74
2021/12/19 11:14:42;;;;;;;3.90;1.00;;;;;;;6.25;87.84;100763.07;1647213;85;20934;-74
2021/12/19 11:17:14;;;;;;;4.35;1.10;;;;;;;6.26;87.90;100758.80;1659611;84;20903;-74
2021/12/19 11:19:44;;;;;;;4.87;0.93;;;;;;;6.25;87.87;100761.78;1648001;85;20925;-74
2021/12/19 11:22:12;;;;;;;6.97;1.10;;;;;;;6.25;87.87;100751.52;1654615;85;20881;-74
2021/12/19 11:24:38;;;;;;;5.08;1.22;;;;;;;6.27;87.84;100756.66;1656089;85;21018;-74
2021/12/19 11:27:08;;;;;;;5.87;1.30;;;;;;;6.27;87.79;100755.37;1645810;84;20904;-74
2021/12/19 11:29:34;;;;;;;2.20;1.10;;;;;;;6.25;87.80;100753.23;1655557;85;20930;-74
2021/12/19 11:32:06;;;;;;;6.53;1.30;;;;;;;6.25;87.80;100749.37;1652351;84;412307;-74
2021/12/19 11:34:59;;;;;;;5.95;1.37;;;;;;;6.24;87.79;100737.39;1660244;85;21720;-74
2021/12/19 11:37:33;;;;;;;3.25;1.10;;;;;;;6.23;87.80;100740.84;1653098;85;20909;-74
2021/12/19 11:40:00;;;;;;;5.15;1.30;;;;;;;6.23;87.81;100742.13;1645488;84;21385;-74
2021/12/19 11:42:35;;;;;;;5.17;1.20;;;;;;;6.24;87.80;100727.12;1657059;85;21457;-74
2021/12/19 11:45:23;;;;;;;2.65;1.55;;;;;;;6.22;87.77;100727.57;1662773;84;21807;-74
2021/12/19 11:47:39;;;;;;;3.72;1.20;;;;;;;6.22;87.81;100732.28;1597761;85;21342;-74
2021/12/19 11:50:26;;;;;;;4.95;1.22;;;;;;;6.24;87.83;100721.55;1656250;85;21378;-75
2021/12/19 11:53:09;;;;;;;5.40;1.13;;;;;;;6.23;87.76;100719.88;1666175;84;20949;-74
2021/12/19 11:55:41;;;;;;;5.40;1.42;;;;;;;6.24;87.78;100718.13;1648119;84;21344;-75
2021/12/19 11:58:22;;;;;;;3.20;1.12;;;;;;;6.23;87.72;100711.31;1644725;85;21394;-74
2021/12/19 12:01:03;;;;;;;9.50;1.57;;;;;;;6.23;87.72;100715.16;1660620;84;21322;-75
2021/12/19 12:03:39;;;;;;;3.75;1.05;;;;;;;6.23;87.71;100695.91;1647998;84;20965;-75
2021/12/19 12:06:25;;;;;;;4.58;1.47;;;;;;;6.22;87.69;100691.63;1655535;85;26945;-75
2021/12/19 12:09:09;;;;;;;3.90;1.10;;;;;;;6.22;87.67;100693.77;1659503;84;21783;-75
2021/12/19 12:11:40;;;;;;;3.80;1.30;;;;;;;6.22;87.66;100683.50;1667490;84;21430;-75
2021/12/19 12:14:26;;;;;;;2.85;1.17;;;;;;;6.22;87.66;100683.50;1658081;85;21769;-74
2021/12/19 12:16:56;;;;;;;;;;;;;;;6.25;87.63;100664.21;1660548;84;21356;-75
2021/12/19 12:19:46;;;;;;;6.90;1.40;;;;;;;6.27;87.59;100670.64;1640629;84;20130;-75
2021/12/19 12:22:30;;;;;;;5.20;1.90;;;;;;;6.25;87.57;100662.07;1637784;86;21440;-75
2021/12/19 12:25:21;;;;;;;4.83;2.00;;;;;;;6.23;87.57;100658.25;1634553;86;20940;-75
2021/12/19 12:28:03;;;;;;;6.53;1.60;;;;;;;6.24;87.56;100655.22;1619298;85;21464;-74
2021/12/19 12:30:29;;;;;;;3.67;1.47;;;;;;;6.23;87.60;100658.67;1642462;86;20983;-74
2021/12/19 12:33:00;;;;;;;5.85;1.72;;;;;;;6.22;87.55;100650.12;1651182;84;20950;-75
2021/12/19 12:35:28;;;;;;;15.03;2.62;;;;;;;6.22;87.55;100654.39;1645493;86;20957;-75
2021/12/19 12:37:55;;;;;;;5.90;1.62;;;;;;;6.22;87.53;100654.39;1629330;86;21544;-75
2021/12/19 12:40:31;;;;;;;4.28;1.60;;;;;;;6.20;87.48;100655.67;1634281;86;21141;-75
2021/12/19 12:43:09;;;;;;;3.37;1.77;;;;;;;6.21;87.49;100654.83;1647249;85;21562;-75
2021/12/19 12:45:52;;;;;;;4.83;2.30;;;;;;;6.20;87.49;100638.98;1631247;86;20921;-75